Time;durP1;ratioP1;P1;durP2;ratioP2;P2;SDS_P1;SDS_P2;PMS_P1;PMS_P2;Temp;Humidity;BMP_temperature;BMP_pressure;BME280_temperature;BME280_humidity;BME280_pressure;Samples;Min_cycle;Max_cycle;Signal;HPM_P1;HPM_P2
2021/06/26 00:00:51;;;;;;;40.23;36.80;;;;;;;;;;4956338;29;20453;-90
2021/06/26 00:03:19;;;;;;;39.10;35.77;;;;;;;;;;4956500;29;20416;-90
2021/06/26 00:05:47;;;;;;;38.23;34.93;;;;;;;;;;4956497;29;20491;-90
2021/06/26 00:08:14;;;;;;;39.63;36.50;;;;;;;;;;4956488;29;20808;-90
2021/06/26 00:10:42;;;;;;;39.57;36.37;;;;;;;;;;4956171;29;20449;-90
2021/06/26 00:13:09;;;;;;;37.27;34.37;;;;;;;;;;4956512;29;20452;-90
2021/06/26 00:15:37;;;;;;;38.50;35.30;;;;;;;;;;4956208;29;20901;-89
2021/06/26 00:18:06;;;;;;;38.90;35.70;;;;;;;;;;4956242;29;20926;-90
2021/06/26 00:20:33;;;;;;;38.03;34.90;;;;;;;;;;4956113;29;20449;-90
2021/06/26 00:23:01;;;;;;;37.70;34.70;;;;;;;;;;4956433;29;20443;-90
2021/06/26 00:25:29;;;;;;;38.50;35.23;;;;;;;;;;4939317;29;21025;-90
2021/06/26 00:27:56;;;;;;;38.83;35.53;;;;;;;;;;4956092;29;20526;-90
2021/06/26 00:30:24;;;;;;;39.20;36.17;;;;;;;;;;4955893;29;20435;-90
2021/06/26 00:32:51;;;;;;;37.57;34.53;;;;;;;;;;4956156;29;20849;-90
2021/06/26 00:35:20;;;;;;;39.60;36.30;;;;;;;;;;4956077;29;20450;-91
2021/06/26 00:37:47;;;;;;;39.47;36.37;;;;;;;;;;4939219;29;20455;-90
2021/06/26 00:40:15;;;;;;;39.63;36.23;;;;;;;;;;4956109;29;20411;-90
2021/06/26 00:42:44;;;;;;;40.47;36.80;;;;;;;;;;4956098;29;20830;-90
2021/06/26 00:45:12;;;;;;;38.97;35.97;;;;;;;;;;4939080;29;20453;-90
2021/06/26 00:47:40;;;;;;;39.20;35.90;;;;;;;;;;4956005;29;20437;-90
2021/06/26 00:50:13;;;;;;;38.57;35.47;;;;;;;;;;4956041;29;20451;-89
2021/06/26 00:52:42;;;;;;;38.60;35.50;;;;;;;;;;4956113;29;20927;-90
2021/06/26 00:55:10;;;;;;;40.17;37.00;;;;;;;;;;4955891;28;20840;-89
2021/06/26 00:57:38;;;;;;;40.43;36.97;;;;;;;;;;4955997;29;20461;-90
2021/06/26 01:00:07;;;;;;;39.80;36.50;;;;;;;;;;4938933;29;20937;-90
2021/06/26 01:02:34;;;;;;;38.87;35.53;;;;;;;;;;4955687;29;20914;-91
2021/06/26 01:05:01;;;;;;;38.13;35.13;;;;;;;;;;4955884;29;20482;-90
2021/06/26 01:07:29;;;;;;;38.77;35.57;;;;;;;;;;4955904;29;20451;-90
2021/06/26 01:09:58;;;;;;;39.23;35.87;;;;;;;;;;4956903;29;20422;-90
2021/06/26 01:12:28;;;;;;;38.80;35.73;;;;;;;;;;4955547;29;20451;-90
2021/06/26 01:14:55;;;;;;;40.20;36.53;;;;;;;;;;4956376;29;20448;-90
2021/06/26 01:17:23;;;;;;;41.83;38.00;;;;;;;;;;4955943;29;20668;-90
2021/06/26 01:19:50;;;;;;;40.23;36.73;;;;;;;;;;4956294;29;20455;-91
2021/06/26 01:22:20;;;;;;;41.00;37.43;;;;;;;;;;4955846;29;20451;-90
2021/06/26 01:24:49;;;;;;;39.33;35.93;;;;;;;;;;4938159;29;20533;-90
2021/06/26 01:27:17;;;;;;;38.47;35.43;;;;;;;;;;4955502;29;20442;-90
2021/06/26 01:29:48;;;;;;;40.97;37.37;;;;;;;;;;4955433;29;20941;-90
2021/06/26 01:32:15;;;;;;;39.23;36.13;;;;;;;;;;4955578;29;20465;-90
2021/06/26 01:34:43;;;;;;;40.10;36.43;;;;;;;;;;4955957;29;20449;-90
2021/06/26 01:37:10;;;;;;;39.47;36.10;;;;;;;;;;4955934;29;20947;-91
2021/06/26 01:39:37;;;;;;;40.20;37.03;;;;;;;;;;4955485;29;20451;-90
2021/06/26 01:42:07;;;;;;;39.83;36.43;;;;;;;;;;4940847;29;20447;-90
2021/06/26 01:44:34;;;;;;;38.73;35.63;;;;;;;;;;4959064;29;20525;-91
2021/06/26 01:47:02;;;;;;;39.07;35.83;;;;;;;;;;4958990;29;20458;-91
2021/06/26 01:49:29;;;;;;;38.80;35.63;;;;;;;;;;4941973;29;20946;-91
2021/06/26 01:51:57;;;;;;;39.90;36.50;;;;;;;;;;4941855;29;20908;-91
2021/06/26 01:54:24;;;;;;;39.57;36.27;;;;;;;;;;4958821;28;20819;-91
2021/06/26 01:56:52;;;;;;;38.37;34.80;;;;;;;;;;4958788;29;20441;-91
2021/06/26 01:59:20;;;;;;;38.70;35.53;;;;;;;;;;4958814;29;20448;-91
2021/06/26 02:01:48;;;;;;;40.30;36.83;;;;;;;;;;4958690;29;20455;-91
2021/06/26 02:04:15;;;;;;;37.53;34.50;;;;;;;;;;4958649;29;20509;-91
2021/06/26 02:06:43;;;;;;;38.87;35.63;;;;;;;;;;4958334;29;20484;-91
2021/06/26 02:09:10;;;;;;;37.10;34.30;;;;;;;;;;4958648;29;20899;-91
2021/06/26 02:11:37;;;;;;;36.53;33.63;;;;;;;;;;4941545;29;20936;-91
2021/06/26 02:14:05;;;;;;;37.73;34.50;;;;;;;;;;4958504;29;20455;-91
2021/06/26 02:16:34;;;;;;;34.33;31.60;;;;;;;;;;4941680;29;20963;-91
2021/06/26 02:19:01;;;;;;;36.10;33.20;;;;;;;;;;4958251;29;20438;-91
2021/06/26 02:21:29;;;;;;;36.67;33.80;;;;;;;;;;4958401;29;20926;-90
2021/06/26 02:23:56;;;;;;;39.17;35.67;;;;;;;;;;4958407;29;20437;-91
2021/06/26 02:26:23;;;;;;;36.87;33.87;;;;;;;;;;4957692;29;20495;-91
2021/06/26 02:28:51;;;;;;;38.70;35.57;;;;;;;;;;4941230;29;20426;-91
2021/06/26 02:31:18;;;;;;;36.43;33.63;;;;;;;;;;4958907;29;20917;-91
2021/06/26 02:33:47;;;;;;;36.43;33.43;;;;;;;;;;4958227;29;20588;-91
2021/06/26 02:36:14;;;;;;;36.53;33.43;;;;;;;;;;4958439;29;20753;-91
2021/06/26 02:38:42;;;;;;;37.47;34.47;;;;;;;;;;4941198;29;20449;-91
2021/06/26 02:41:09;;;;;;;36.53;33.23;;;;;;;;;;4957765;29;20451;-91
2021/06/26 02:43:36;;;;;;;37.40;34.20;;;;;;;;;;4957669;29;20450;-91
2021/06/26 02:46:04;;;;;;;36.97;34.00;;;;;;;;;;4957248;29;21015;-91
2021/06/26 02:48:31;;;;;;;37.20;34.30;;;;;;;;;;4957671;29;20789;-91
2021/06/26 02:51:00;;;;;;;36.87;33.97;;;;;;;;;;4957870;29;20411;-91
2021/06/26 02:53:27;;;;;;;38.53;35.23;;;;;;;;;;4957181;28;20437;-91
2021/06/26 02:55:56;;;;;;;37.97;34.47;;;;;;;;;;4957674;28;20438;-91
2021/06/26 02:58:24;;;;;;;36.40;33.40;;;;;;;;;;4957568;29;20449;-91
2021/06/26 03:00:51;;;;;;;36.43;33.37;;;;;;;;;;4957645;29;20440;-91
2021/06/26 03:03:19;;;;;;;35.30;32.50;;;;;;;;;;4957526;29;20444;-90
2021/06/26 03:05:46;;;;;;;35.00;32.30;;;;;;;;;;4957180;29;20487;-91
2021/06/26 03:08:15;;;;;;;34.53;31.83;;;;;;;;;;4957213;29;20441;-91
2021/06/26 03:10:43;;;;;;;35.50;32.27;;;;;;;;;;4957522;29;20424;-91
2021/06/26 03:13:10;;;;;;;34.10;31.40;;;;;;;;;;4940253;29;20451;-91
2021/06/26 03:15:37;;;;;;;36.00;33.00;;;;;;;;;;4957281;29;20492;-91
2021/06/26 03:18:05;;;;;;;35.93;33.13;;;;;;;;;;4940501;29;20423;-91
2021/06/26 03:20:33;;;;;;;34.43;31.93;;;;;;;;;;4957047;29;20456;-91
2021/06/26 03:23:00;;;;;;;33.17;30.47;;;;;;;;;;4940255;29;20452;-90
2021/06/26 03:25:29;;;;;;;35.70;32.83;;;;;;;;;;4956721;29;20483;-92
2021/06/26 03:27:56;;;;;;;33.53;30.90;;;;;;;;;;4957213;29;20449;-91
2021/06/26 03:30:24;;;;;;;34.13;31.40;;;;;;;;;;4957126;29;20433;-88
2021/06/26 03:32:51;;;;;;;35.50;32.70;;;;;;;;;;4956752;29;20443;-89
2021/06/26 03:35:19;;;;;;;37.30;33.97;;;;;;;;;;4957117;29;20914;-89
2021/06/26 03:37:46;;;;;;;33.97;31.43;;;;;;;;;;4956817;29;20422;-91
2021/06/26 03:40:14;;;;;;;35.67;32.67;;;;;;;;;;4957256;29;20968;-91
2021/06/26 03:42:43;;;;;;;35.10;32.10;;;;;;;;;;4956555;29;20448;-89
2021/06/26 03:45:11;;;;;;;33.70;31.07;;;;;;;;;;4956955;29;20961;-89
2021/06/26 03:47:38;;;;;;;34.07;31.10;;;;;;;;;;4956748;29;20487;-89
2021/06/26 03:50:06;;;;;;;34.20;31.37;;;;;;;;;;4956453;28;20448;-89
2021/06/26 03:52:34;;;;;;;34.80;31.90;;;;;;;;;;4939633;29;20460;-89
2021/06/26 03:55:02;;;;;;;36.67;33.53;;;;;;;;;;4956570;28;20550;-88
2021/06/26 03:57:29;;;;;;;37.03;33.73;;;;;;;;;;4956919;29;20422;-89
2021/06/26 03:59:58;;;;;;;35.00;32.03;;;;;;;;;;4956758;29;20788;-89
2021/06/26 04:02:25;;;;;;;33.93;31.37;;;;;;;;;;4956581;29;20442;-89
2021/06/26 04:04:52;;;;;;;34.23;31.43;;;;;;;;;;4955674;28;20451;-89
2021/06/26 04:07:20;;;;;;;33.77;31.10;;;;;;;;;;4956695;29;20488;-89
2021/06/26 04:09:47;;;;;;;35.27;32.67;;;;;;;;;;4956541;29;20468;-89
2021/06/26 04:12:14;;;;;;;32.73;30.13;;;;;;;;;;4956478;29;20436;-89
2021/06/26 04:14:42;;;;;;;35.10;32.37;;;;;;;;;;4956435;29;20808;-89
2021/06/26 04:17:11;;;;;;;35.53;32.53;;;;;;;;;;4956610;29;20441;-88
2021/06/26 04:19:38;;;;;;;34.83;31.93;;;;;;;;;;4956402;29;20440;-89
2021/06/26 04:22:05;;;;;;;34.77;32.03;;;;;;;;;;4956443;29;20448;-88
2021/06/26 04:24:33;;;;;;;36.03;33.23;;;;;;;;;;4955922;29;20430;-88
2021/06/26 04:27:00;;;;;;;35.60;32.90;;;;;;;;;;4955916;29;20457;-89
2021/06/26 04:29:28;;;;;;;34.77;31.97;;;;;;;;;;4955958;29;20444;-88
2021/06/26 04:31:55;;;;;;;35.20;32.50;;;;;;;;;;4955930;29;20440;-88
2021/06/26 04:34:24;;;;;;;34.60;32.00;;;;;;;;;;4956269;29;20432;-89
2021/06/26 04:36:51;;;;;;;36.77;33.90;;;;;;;;;;4956148;29;20444;-89
2021/06/26 04:39:19;;;;;;;34.87;32.27;;;;;;;;;;4956074;29;20469;-89
2021/06/26 04:41:46;;;;;;;35.90;32.90;;;;;;;;;;4939244;29;20448;-88
2021/06/26 04:44:13;;;;;;;36.23;33.20;;;;;;;;;;4955882;29;20885;-89
2021/06/26 04:46:42;;;;;;;34.97;32.07;;;;;;;;;;4956058;28;20511;-89
2021/06/26 04:49:11;;;;;;;35.80;33.00;;;;;;;;;;4956118;29;20419;-89
2021/06/26 04:51:40;;;;;;;34.33;31.63;;;;;;;;;;4956731;29;20841;-89
2021/06/26 04:54:08;;;;;;;32.97;30.47;;;;;;;;;;4955920;28;20464;-89
2021/06/26 04:56:35;;;;;;;34.93;32.20;;;;;;;;;;4956172;29;20418;-90
2021/06/26 04:59:02;;;;;;;34.37;31.77;;;;;;;;;;4956124;29;20416;-89
2021/06/26 05:01:30;;;;;;;35.57;32.90;;;;;;;;;;4956012;29;20411;-89
2021/06/26 05:03:57;;;;;;;33.90;31.50;;;;;;;;;;4955920;29;20804;-89
2021/06/26 05:06:25;;;;;;;33.00;30.50;;;;;;;;;;4955643;29;20462;-89
2021/06/26 05:08:53;;;;;;;33.73;31.20;;;;;;;;;;4955646;29;20419;-89
2021/06/26 05:11:21;;;;;;;34.10;31.60;;;;;;;;;;4938821;29;20423;-89
2021/06/26 05:13:48;;;;;;;35.93;33.23;;;;;;;;;;4955711;29;20410;-89
2021/06/26 05:16:16;;;;;;;35.87;33.00;;;;;;;;;;4959487;28;20421;-88
2021/06/26 05:18:43;;;;;;;35.03;32.30;;;;;;;;;;4959664;29;20447;-89
2021/06/26 05:21:11;;;;;;;38.40;34.80;;;;;;;;;;4959550;29;20447;-89
2021/06/26 05:23:38;;;;;;;37.20;34.30;;;;;;;;;;4959384;29;20452;-89
2021/06/26 05:26:09;;;;;;;36.33;32.93;;;;;;;;;;4958635;28;20473;-89
2021/06/26 05:28:36;;;;;;;36.00;33.17;;;;;;;;;;4942283;29;20801;-88
2021/06/26 05:31:04;;;;;;;38.57;34.93;;;;;;;;;;4942181;29;20446;-89
2021/06/26 05:33:31;;;;;;;36.47;33.67;;;;;;;;;;4959275;29;20426;-88
2021/06/26 05:35:59;;;;;;;34.70;31.70;;;;;;;;;;4959357;29;20423;-89
2021/06/26 05:38:26;;;;;;;36.73;33.83;;;;;;;;;;4942091;29;20476;-89
2021/06/26 05:40:54;;;;;;;37.77;34.67;;;;;;;;;;4959103;29;20436;-89
2021/06/26 05:43:23;;;;;;;37.13;33.97;;;;;;;;;;4959108;29;20443;-88
2021/06/26 05:45:50;;;;;;;40.63;37.30;;;;;;;;;;4958775;29;20419;-89
2021/06/26 05:48:18;;;;;;;37.83;34.83;;;;;;;;;;4958744;29;20481;-89
2021/06/26 05:50:45;;;;;;;38.73;35.40;;;;;;;;;;4958783;29;20905;-93
2021/06/26 05:53:12;;;;;;;39.93;36.43;;;;;;;;;;4958612;29;20461;-89
2021/06/26 05:55:40;;;;;;;39.33;35.87;;;;;;;;;;4958979;28;20959;-89
2021/06/26 05:58:07;;;;;;;39.73;36.37;;;;;;;;;;4942109;29;20450;-89
2021/06/26 06:00:37;;;;;;;38.73;35.43;;;;;;;;;;4958551;29;20453;-88
2021/06/26 06:03:05;;;;;;;38.67;35.50;;;;;;;;;;4958460;29;20534;-89
2021/06/26 06:05:32;;;;;;;39.00;35.70;;;;;;;;;;4958672;29;20797;-89
2021/06/26 06:08:00;;;;;;;38.70;35.43;;;;;;;;;;4958657;29;20534;-89
2021/06/26 06:10:28;;;;;;;38.13;34.93;;;;;;;;;;4958646;29;20943;-89
2021/06/26 06:12:55;;;;;;;38.67;35.40;;;;;;;;;;4958303;29;20464;-89
2021/06/26 06:15:22;;;;;;;39.83;36.33;;;;;;;;;;4958477;29;20432;-89
2021/06/26 06:17:51;;;;;;;40.47;36.73;;;;;;;;;;4959142;29;20469;-89
2021/06/26 06:20:18;;;;;;;40.40;36.93;;;;;;;;;;4957945;29;20452;-88
2021/06/26 06:22:46;;;;;;;41.03;37.77;;;;;;;;;;4957805;29;20937;-89
2021/06/26 06:25:13;;;;;;;39.70;36.50;;;;;;;;;;4957862;29;20486;-88
2021/06/26 06:27:42;;;;;;;40.83;37.07;;;;;;;;;;4957577;28;20494;-88
2021/06/26 06:30:10;;;;;;;40.40;37.00;;;;;;;;;;4958350;29;20441;-89
2021/06/26 06:32:37;;;;;;;41.57;37.77;;;;;;;;;;4958150;29;20478;-88
2021/06/26 06:35:07;;;;;;;39.43;35.83;;;;;;;;;;4958347;29;20441;-88
2021/06/26 06:37:35;;;;;;;39.10;35.83;;;;;;;;;;4958099;29;20534;-88
2021/06/26 06:40:02;;;;;;;38.30;35.13;;;;;;;;;;4957900;29;20477;-88
2021/06/26 06:42:29;;;;;;;38.00;34.80;;;;;;;;;;4958032;29;20443;-88
2021/06/26 06:44:57;;;;;;;38.23;34.73;;;;;;;;;;4957639;29;20442;-88
2021/06/26 06:47:25;;;;;;;36.53;33.43;;;;;;;;;;4957560;29;20494;-88
2021/06/26 06:49:52;;;;;;;37.30;34.30;;;;;;;;;;4958319;29;20456;-89
2021/06/26 06:52:21;;;;;;;38.30;34.93;;;;;;;;;;4957792;29;20440;-88
2021/06/26 06:54:48;;;;;;;39.17;35.87;;;;;;;;;;4957696;28;20482;-87
2021/06/26 06:57:20;;;;;;;38.53;35.23;;;;;;;;;;4940735;29;20460;-89
2021/06/26 06:59:47;;;;;;;38.23;35.13;;;;;;;;;;4957524;29;20431;-88
2021/06/26 07:02:15;;;;;;;38.87;35.83;;;;;;;;;;4957606;29;20419;-89
2021/06/26 07:04:42;;;;;;;36.70;33.83;;;;;;;;;;4957128;29;20441;-89
2021/06/26 07:07:09;;;;;;;36.07;33.27;;;;;;;;;;4957371;29;20473;-88
2021/06/26 07:09:39;;;;;;;35.83;33.13;;;;;;;;;;4957654;29;20415;-91
2021/06/26 07:12:07;;;;;;;37.10;34.00;;;;;;;;;;4957228;29;20934;-88
2021/06/26 07:14:34;;;;;;;38.93;35.73;;;;;;;;;;4957053;29;20929;-88
2021/06/26 07:17:01;;;;;;;35.93;33.03;;;;;;;;;;4957624;29;20456;-84
2021/06/26 07:19:29;;;;;;;35.60;32.70;;;;;;;;;;4956343;29;20456;-84
2021/06/26 07:21:56;;;;;;;37.10;33.90;;;;;;;;;;4956707;29;20435;-84
2021/06/26 07:24:24;;;;;;;34.40;31.67;;;;;;;;;;4956491;29;20500;-83
2021/06/26 07:26:53;;;;;;;33.40;30.40;;;;;;;;;;4956055;29;20572;-84
2021/06/26 07:29:20;;;;;;;33.23;30.73;;;;;;;;;;4956642;29;20457;-84
2021/06/26 07:31:48;;;;;;;32.80;30.40;;;;;;;;;;4956671;29;20814;-84
2021/06/26 07:34:16;;;;;;;34.47;31.87;;;;;;;;;;4956695;29;20487;-84
2021/06/26 07:36:43;;;;;;;33.20;30.80;;;;;;;;;;4956425;29;20414;-85
2021/06/26 07:39:10;;;;;;;31.90;29.50;;;;;;;;;;4955774;28;20437;-84
2021/06/26 07:41:38;;;;;;;31.60;29.20;;;;;;;;;;4956534;29;20447;-84
2021/06/26 07:44:07;;;;;;;31.13;28.83;;;;;;;;;;4956542;29;20437;-85
2021/06/26 07:46:34;;;;;;;30.60;28.40;;;;;;;;;;4956600;29;20445;-84
2021/06/26 07:49:02;;;;;;;28.37;26.10;;;;;;;;;;4939255;29;20451;-85
2021/06/26 07:51:29;;;;;;;29.77;27.60;;;;;;;;;;4956446;29;20427;-86
2021/06/26 07:53:57;;;;;;;31.97;29.43;;;;;;;;;;4956837;28;20457;-86
2021/06/26 07:56:25;;;;;;;29.87;27.87;;;;;;;;;;4956173;29;20916;-85
2021/06/26 07:58:53;;;;;;;30.90;28.70;;;;;;;;;;4956334;29;20453;-84
2021/06/26 08:01:22;;;;;;;33.83;31.00;;;;;;;;;;4956355;29;20548;-89
2021/06/26 08:03:49;;;;;;;33.83;31.23;;;;;;;;;;4956615;29;20918;-86
2021/06/26 08:06:17;;;;;;;33.00;30.50;;;;;;;;;;4956571;29;20416;-88
2021/06/26 08:08:44;;;;;;;33.73;31.03;;;;;;;;;;4956663;29;20460;-88
2021/06/26 08:11:12;;;;;;;32.60;30.00;;;;;;;;;;4956123;28;20510;-88
2021/06/26 08:13:39;;;;;;;32.90;30.10;;;;;;;;;;4956149;29;20510;-88
2021/06/26 08:16:07;;;;;;;32.60;30.40;;;;;;;;;;4956486;29;20435;-88
2021/06/26 08:18:36;;;;;;;33.07;30.30;;;;;;;;;;4939403;29;20427;-88
2021/06/26 08:21:03;;;;;;;32.00;29.70;;;;;;;;;;4956486;29;20435;-88
2021/06/26 08:23:30;;;;;;;31.70;29.30;;;;;;;;;;4956023;29;20453;-88
2021/06/26 08:25:58;;;;;;;32.33;30.23;;;;;;;;;;4955992;29;20455;-88
2021/06/26 08:28:25;;;;;;;32.40;30.17;;;;;;;;;;4955995;29;20496;-87
2021/06/26 08:30:52;;;;;;;32.43;29.93;;;;;;;;;;4955908;29;20424;-88
2021/06/26 08:33:20;;;;;;;32.93;30.33;;;;;;;;;;4955935;29;20916;-88
2021/06/26 08:35:48;;;;;;;31.30;29.30;;;;;;;;;;4956246;29;20442;-87
2021/06/26 08:38:16;;;;;;;31.67;29.50;;;;;;;;;;4956292;29;20443;-87
2021/06/26 08:40:44;;;;;;;32.77;30.33;;;;;;;;;;4955936;29;20443;-88
2021/06/26 08:43:11;;;;;;;32.90;30.50;;;;;;;;;;4956150;29;20440;-88
2021/06/26 08:45:39;;;;;;;31.53;29.43;;;;;;;;;;4956749;29;20421;-88
2021/06/26 08:48:07;;;;;;;34.77;32.37;;;;;;;;;;4956147;29;20456;-88
2021/06/26 08:50:34;;;;;;;33.40;31.00;;;;;;;;;;4957798;28;20441;-88
2021/06/26 08:53:03;;;;;;;33.70;31.43;;;;;;;;;;4959613;28;20456;-88
2021/06/26 08:55:30;;;;;;;32.13;30.07;;;;;;;;;;4959553;29;20445;-88
2021/06/26 08:57:58;;;;;;;31.50;29.40;;;;;;;;;;4959533;29;20620;-88
2021/06/26 09:00:26;;;;;;;32.63;30.10;;;;;;;;;;4959568;29;20450;-88
2021/06/26 09:03:05;;;;;;;33.47;31.13;;;;;;;;;;4959970;29;20489;-88
2021/06/26 09:05:33;;;;;;;33.30;31.00;;;;;;;;;;4959939;29;20905;-88
2021/06/26 09:08:10;;;;;;;32.23;30.13;;;;;;;;;;4959604;29;20850;-87
2021/06/26 09:10:38;;;;;;;34.57;32.07;;;;;;;;;;4959559;29;20426;-88
2021/06/26 09:13:13;;;;;;;32.87;30.47;;;;;;;;;;4959536;29;20450;-89
2021/06/26 09:15:40;;;;;;;31.83;29.63;;;;;;;;;;4959344;29;20442;-88
2021/06/26 09:18:17;;;;;;;30.20;28.13;;;;;;;;;;4959651;29;20746;-88
2021/06/26 09:20:48;;;;;;;32.60;29.93;;;;;;;;;;4959327;29;20517;-88
2021/06/26 09:23:28;;;;;;;32.20;29.90;;;;;;;;;;4959304;29;20444;-88
2021/06/26 09:26:04;;;;;;;32.13;29.93;;;;;;;;;;4958962;29;20486;-87
2021/06/26 09:28:31;;;;;;;31.50;29.17;;;;;;;;;;4942051;29;20489;-88
2021/06/26 09:30:59;;;;;;;33.80;31.43;;;;;;;;;;4959328;29;20447;-88
2021/06/26 09:33:27;;;;;;;32.70;30.50;;;;;;;;;;4959383;29;20449;-87
2021/06/26 09:36:02;;;;;;;32.60;30.10;;;;;;;;;;4958928;29;20446;-87
2021/06/26 09:38:32;;;;;;;32.03;29.90;;;;;;;;;;4958888;29;20465;-87
2021/06/26 09:41:00;;;;;;;35.20;32.60;;;;;;;;;;4941985;29;20482;-87
2021/06/26 09:43:28;;;;;;;33.10;30.70;;;;;;;;;;4958587;29;20467;-87
2021/06/26 09:46:10;;;;;;;33.90;31.50;;;;;;;;;;4958626;29;20446;-87
2021/06/26 09:48:48;;;;;;;32.03;29.80;;;;;;;;;;4956599;29;20504;-87
2021/06/26 09:51:19;;;;;;;28.93;27.00;;;;;;;;;;4958672;29;20442;-96
2021/06/26 09:53:55;;;;;;;30.00;27.83;;;;;;;;;;4959367;28;20792;-86
2021/06/26 09:56:23;;;;;;;29.30;27.17;;;;;;;;;;4958269;29;20417;-86
2021/06/26 09:58:51;;;;;;;27.67;25.90;;;;;;;;;;4941482;29;20447;-86
2021/06/26 10:01:19;;;;;;;30.43;28.43;;;;;;;;;;4957203;28;20441;-87
2021/06/26 10:03:47;;;;;;;32.30;30.10;;;;;;;;;;4958095;29;20432;-87
2021/06/26 10:06:16;;;;;;;28.90;27.00;;;;;;;;;;4958543;29;20421;-87
2021/06/26 10:08:44;;;;;;;29.80;27.83;;;;;;;;;;4958287;29;20525;-86
2021/06/26 10:11:13;;;;;;;26.63;25.00;;;;;;;;;;4958190;29;20463;-86
2021/06/26 10:13:41;;;;;;;28.60;26.60;;;;;;;;;;4958154;28;20465;-87
2021/06/26 10:16:09;;;;;;;27.57;25.77;;;;;;;;;;4958262;29;20413;-86
2021/06/26 10:18:37;;;;;;;30.17;28.17;;;;;;;;;;4958309;29;20439;-87
2021/06/26 10:21:05;;;;;;;28.53;26.53;;;;;;;;;;4941265;29;20462;-87
2021/06/26 10:23:33;;;;;;;27.63;25.93;;;;;;;;;;4958019;29;20755;-87
2021/06/26 10:26:01;;;;;;;29.90;27.90;;;;;;;;;;4957495;29;20551;-85
2021/06/26 10:28:30;;;;;;;29.57;27.53;;;;;;;;;;4958238;29;21046;-86
2021/06/26 10:30:59;;;;;;;28.67;26.77;;;;;;;;;;4940770;29;20432;-85
2021/06/26 10:33:27;;;;;;;29.17;27.27;;;;;;;;;;4957948;29;20458;-86
2021/06/26 10:35:55;;;;;;;28.67;26.80;;;;;;;;;;4957924;29;20443;-86
2021/06/26 10:38:22;;;;;;;28.27;26.47;;;;;;;;;;4940793;29;20443;-85
2021/06/26 10:40:51;;;;;;;27.50;25.60;;;;;;;;;;4957614;29;20440;-86
2021/06/26 10:43:23;;;;;;;27.27;25.50;;;;;;;;;;4957606;29;20437;-87
2021/06/26 10:45:53;;;;;;;28.63;26.70;;;;;;;;;;4940896;29;20477;-86
2021/06/26 10:48:21;;;;;;;28.90;27.00;;;;;;;;;;4957716;29;20460;-86
2021/06/26 10:50:49;;;;;;;28.07;26.20;;;;;;;;;;4957678;29;20506;-88
2021/06/26 10:53:26;;;;;;;29.03;27.13;;;;;;;;;;4957172;28;20464;-86
2021/06/26 10:56:02;;;;;;;27.83;25.80;;;;;;;;;;4939617;29;20446;-85
2021/06/26 10:58:30;;;;;;;29.67;27.67;;;;;;;;;;4957309;29;20423;-86
2021/06/26 11:00:59;;;;;;;28.13;26.23;;;;;;;;;;4957571;29;20418;-87
2021/06/26 11:03:30;;;;;;;31.10;28.90;;;;;;;;;;4957360;29;20417;-86
2021/06/26 11:05:59;;;;;;;29.83;27.83;;;;;;;;;;4957236;29;20450;-86
2021/06/26 11:08:27;;;;;;;29.40;27.40;;;;;;;;;;4956976;29;20548;-86
2021/06/26 11:10:55;;;;;;;28.33;26.50;;;;;;;;;;4957325;29;20472;-84
2021/06/26 11:13:23;;;;;;;29.13;26.60;;;;;;;;;;4956854;28;20451;-86
2021/06/26 11:15:51;;;;;;;28.50;26.70;;;;;;;;;;4940221;29;20425;-86
2021/06/26 11:18:21;;;;;;;30.90;28.60;;;;;;;;;;4957178;29;20462;-86
2021/06/26 11:20:48;;;;;;;30.67;28.53;;;;;;;;;;4957188;29;20418;-86
2021/06/26 11:23:17;;;;;;;30.77;28.67;;;;;;;;;;4957555;29;20481;-86
2021/06/26 11:25:45;;;;;;;29.93;27.93;;;;;;;;;;4956637;29;20464;-86
2021/06/26 11:28:14;;;;;;;28.30;26.50;;;;;;;;;;4939839;29;20486;-86
2021/06/26 11:30:44;;;;;;;30.50;28.50;;;;;;;;;;4956744;29;20919;-86
2021/06/26 11:33:11;;;;;;;30.80;28.67;;;;;;;;;;4956973;29;20456;-86
2021/06/26 11:35:42;;;;;;;29.30;27.50;;;;;;;;;;4957353;29;20441;-86
2021/06/26 11:38:15;;;;;;;30.50;28.30;;;;;;;;;;4958933;29;20491;-86
2021/06/26 11:40:42;;;;;;;29.50;27.57;;;;;;;;;;4956635;29;20443;-86
2021/06/26 11:43:10;;;;;;;30.93;28.33;;;;;;;;;;4957224;29;20931;-86
2021/06/26 11:45:38;;;;;;;28.60;26.57;;;;;;;;;;4956321;29;20912;-86
2021/06/26 11:48:08;;;;;;;29.90;28.00;;;;;;;;;;4959064;29;20459;-86
2021/06/26 11:50:37;;;;;;;30.30;28.40;;;;;;;;;;4959480;29;20924;-90
2021/06/26 11:53:07;;;;;;;29.77;27.87;;;;;;;;;;4958041;28;20449;-85
2021/06/26 11:55:38;;;;;;;30.10;28.00;;;;;;;;;;4956122;29;20817;-86
2021/06/26 11:58:06;;;;;;;30.13;28.20;;;;;;;;;;4956498;29;20429;-86
2021/06/26 12:00:33;;;;;;;31.03;28.80;;;;;;;;;;4956909;29;20430;-85
2021/06/26 12:03:01;;;;;;;29.43;27.33;;;;;;;;;;4956265;29;21097;-86
2021/06/26 12:05:28;;;;;;;30.07;28.03;;;;;;;;;;4956042;29;20896;-86
2021/06/26 12:08:04;;;;;;;31.33;29.33;;;;;;;;;;4956745;29;20425;-85
2021/06/26 12:10:33;;;;;;;31.77;29.20;;;;;;;;;;4956141;29;20459;-86
2021/06/26 12:13:01;;;;;;;30.17;28.37;;;;;;;;;;4956286;29;20429;-86
2021/06/26 12:15:29;;;;;;;29.57;27.67;;;;;;;;;;4939073;29;20449;-86
2021/06/26 12:18:04;;;;;;;27.90;26.10;;;;;;;;;;4956278;29;20425;-86
2021/06/26 12:20:35;;;;;;;29.03;27.20;;;;;;;;;;4956525;29;20450;-85
2021/06/26 12:23:06;;;;;;;29.63;27.63;;;;;;;;;;4955775;29;20485;-85
2021/06/26 12:25:39;;;;;;;28.23;26.43;;;;;;;;;;4955009;28;20457;-86
2021/06/26 12:28:09;;;;;;;28.27;26.47;;;;;;;;;;4956069;29;20425;-85
2021/06/26 12:30:37;;;;;;;28.60;26.87;;;;;;;;;;4938785;29;20510;-85
2021/06/26 12:33:05;;;;;;;27.87;26.07;;;;;;;;;;4955860;29;20425;-85
2021/06/26 12:35:33;;;;;;;27.80;26.10;;;;;;;;;;4955857;29;20910;-83
2021/06/26 12:38:01;;;;;;;27.40;25.70;;;;;;;;;;4955962;29;20422;-85
2021/06/26 12:40:29;;;;;;;28.70;26.70;;;;;;;;;;4955891;29;20422;-85
2021/06/26 12:43:01;;;;;;;27.30;25.60;;;;;;;;;;4955856;29;20414;-85
2021/06/26 12:45:32;;;;;;;26.67;24.87;;;;;;;;;;4955692;29;20905;-85
2021/06/26 12:48:02;;;;;;;28.00;26.20;;;;;;;;;;4955715;29;20436;-85
2021/06/26 12:50:33;;;;;;;26.60;25.00;;;;;;;;;;4955674;29;20464;-83
2021/06/26 12:53:00;;;;;;;28.00;26.20;;;;;;;;;;4955586;28;20484;-81
2021/06/26 12:55:28;;;;;;;28.40;26.47;;;;;;;;;;4955299;29;20443;-84
2021/06/26 12:57:58;;;;;;;27.93;26.23;;;;;;;;;;4938055;29;20429;-81
2021/06/26 13:00:27;;;;;;;27.67;25.90;;;;;;;;;;4954132;29;20418;-80
2021/06/26 13:02:55;;;;;;;28.13;26.40;;;;;;;;;;4955141;29;20430;-81
2021/06/26 13:05:23;;;;;;;29.03;27.20;;;;;;;;;;4955199;29;20445;-83
2021/06/26 13:08:03;;;;;;;30.13;28.13;;;;;;;;;;4954998;29;20790;-84
2021/06/26 13:10:31;;;;;;;28.83;27.03;;;;;;;;;;4954985;29;20871;-83
2021/06/26 13:12:59;;;;;;;30.30;28.17;;;;;;;;;;4955111;29;20454;-83
2021/06/26 13:15:28;;;;;;;30.90;28.90;;;;;;;;;;4955099;29;20467;-83
2021/06/26 13:17:55;;;;;;;30.20;27.93;;;;;;;;;;4955001;29;20541;-84
2021/06/26 13:20:23;;;;;;;29.73;27.80;;;;;;;;;;4955268;29;20451;-83
2021/06/26 13:22:50;;;;;;;29.87;27.87;;;;;;;;;;4954937;29;20470;-83
2021/06/26 13:25:18;;;;;;;30.00;27.70;;;;;;;;;;4954687;29;20460;-84
2021/06/26 13:27:46;;;;;;;28.80;26.87;;;;;;;;;;4955168;29;20402;-84
2021/06/26 13:30:14;;;;;;;29.43;27.53;;;;;;;;;;4954987;29;20963;-84
2021/06/26 13:32:44;;;;;;;29.37;27.30;;;;;;;;;;4954987;29;20410;-84
2021/06/26 13:35:12;;;;;;;30.03;28.00;;;;;;;;;;4954845;29;20446;-84
2021/06/26 13:37:40;;;;;;;30.57;28.37;;;;;;;;;;4958095;28;20907;-84
2021/06/26 13:40:08;;;;;;;31.57;29.33;;;;;;;;;;4958384;29;20426;-84
2021/06/26 13:42:36;;;;;;;29.80;27.80;;;;;;;;;;4958346;29;20799;-83
2021/06/26 13:45:03;;;;;;;28.87;26.90;;;;;;;;;;4958593;29;20410;-83
2021/06/26 13:47:31;;;;;;;29.30;27.20;;;;;;;;;;4958616;29;20439;-83
2021/06/26 13:49:59;;;;;;;29.77;27.87;;;;;;;;;;4958170;29;20461;-83
2021/06/26 13:52:27;;;;;;;30.47;28.57;;;;;;;;;;4958141;28;20446;-82
2021/06/26 13:54:54;;;;;;;29.60;27.70;;;;;;;;;;4958200;29;20440;-83
2021/06/26 13:57:22;;;;;;;30.10;28.03;;;;;;;;;;4958331;29;20755;-83
2021/06/26 13:59:49;;;;;;;31.00;28.63;;;;;;;;;;4958239;29;20425;-83
2021/06/26 14:02:17;;;;;;;32.07;29.97;;;;;;;;;;4957926;29;20411;-83
2021/06/26 14:04:45;;;;;;;30.70;28.57;;;;;;;;;;4958234;29;20452;-83
2021/06/26 14:07:14;;;;;;;30.63;28.57;;;;;;;;;;4957872;29;20454;-83
2021/06/26 14:09:41;;;;;;;31.20;29.10;;;;;;;;;;4957675;29;20467;-82
2021/06/26 14:12:09;;;;;;;30.23;28.33;;;;;;;;;;4957801;29;20430;-83
2021/06/26 14:14:36;;;;;;;29.20;27.30;;;;;;;;;;4958008;29;20410;-83
2021/06/26 14:17:04;;;;;;;29.53;27.63;;;;;;;;;;4957720;29;20415;-85
2021/06/26 14:19:31;;;;;;;29.23;27.43;;;;;;;;;;4958592;29;20429;-83
2021/06/26 14:21:59;;;;;;;29.27;27.43;;;;;;;;;;4957671;29;20413;-83